Deweyville, Texas
Current Conditions -  °F | °C
As of 5:55 PM on Monday 20 Oct 2014 (Local Time) from KORG Reporting Station
Clear Clear  
Wind Chill: 76°   Ceiling: Unl
Heat Index: 78°   Visibility: 10mi
Dew Point: 55°   Wind: 0mph
Humidity: 47%   Direction: NA
Pressure: 30"   Gusts: NA
Location:  30.3°N, 93.74°W
Report Text: KORG 202255Z AUTO 00000KT 10SM CLR 25/13 A3000 RMK AO2 T02470126
Loading
Personal Weather Stations






























Interactive Weather Map
Tropical Storm Tracking
New forecast layout! Learn more

10-Day Weather Forecast

Advertisements
Track Severe Weather on mobile